Time;durP1;ratioP1;P1;durP2;ratioP2;P2;SDS_P1;SDS_P2;PMS_P1;PMS_P2;Temp;Humidity;BMP_temperature;BMP_pressure;BME280_temperature;BME280_humidity;BME280_pressure;Samples;Min_cycle;Max_cycle;Signal;HPM_P1;HPM_P2
2021/04/11 00:01:38;;;;;;;5.17;4.60;;;11.40;99.90;;;;;;5093920;28;20454;-77
2021/04/11 00:04:04;;;;;;;4.80;4.30;;;11.50;99.90;;;;;;5091285;28;20181;-79
2021/04/11 00:06:30;;;;;;;7.73;6.10;;;11.60;99.90;;;;;;5092602;28;20596;-78
2021/04/11 00:08:55;;;;;;;6.00;4.70;;;11.50;99.90;;;;;;5076898;28;20246;-78
2021/04/11 00:11:22;;;;;;;6.80;5.67;;;11.70;99.90;;;;;;5087675;28;20205;-79
2021/04/11 00:13:51;;;;;;;6.43;5.37;;;11.70;99.90;;;;;;5060485;28;20671;-79
2021/04/11 00:16:17;;;;;;;5.10;4.70;;;11.50;99.90;;;;;;5067297;28;20919;-78
2021/04/11 00:18:42;;;;;;;6.00;4.37;;;11.70;99.90;;;;;;5053082;28;20541;-79
2021/04/11 00:21:08;;;;;;;4.90;4.50;;;11.70;99.90;;;;;;5072035;28;20469;-79
2021/04/11 00:23:34;;;;;;;4.80;4.40;;;11.80;99.90;;;;;;5060150;28;20182;-79
2021/04/11 00:26:00;;;;;;;5.80;4.77;;;11.90;99.90;;;;;;5065778;28;20487;-79
2021/04/11 00:28:25;;;;;;;5.77;4.07;;;11.90;99.90;;;;;;5081010;28;20533;-77
2021/04/11 00:30:51;;;;;;;5.73;4.10;;;11.90;99.90;;;;;;5094577;28;20201;-78
2021/04/11 00:33:32;;;;;;;6.17;4.00;;;11.80;99.90;;;;;;5088708;28;20177;-78
2021/04/11 00:36:01;;;;;;;6.83;4.47;;;11.80;99.90;;;;;;5095744;28;20174;-78
2021/04/11 00:38:28;;;;;;;4.20;3.80;;;11.80;99.90;;;;;;5091330;28;20477;-78
2021/04/11 00:41:00;;;;;;;4.30;3.90;;;11.80;99.90;;;;;;5073912;28;20462;-79
2021/04/11 00:43:28;;;;;;;5.30;4.60;;;11.70;99.90;;;;;;5090076;28;20443;-78
2021/04/11 00:46:14;;;;;;;4.50;3.40;;;11.70;99.90;;;;;;5093893;28;20454;-78
2021/04/11 00:48:40;;;;;;;4.90;4.47;;;11.70;99.90;;;;;;5097984;28;20415;-78
2021/04/11 00:51:13;;;;;;;4.20;3.90;;;11.60;99.90;;;;;;5094207;28;20428;-78
2021/04/11 00:53:40;;;;;;;5.50;4.33;;;11.60;99.90;;;;;;5071138;28;20443;-78
2021/04/11 00:56:06;;;;;;;4.93;4.50;;;11.50;99.90;;;;;;5095257;28;20795;-78
2021/04/11 00:58:33;;;;;;;5.20;4.70;;;11.60;99.90;;;;;;5072108;28;20438;-78
2021/04/11 01:00:59;;;;;;;5.00;4.20;;;11.70;99.90;;;;;;5082941;28;20452;-78
2021/04/11 01:03:28;;;;;;;3.90;3.60;;;11.70;99.90;;;;;;5084672;28;20423;-78
2021/04/11 01:05:55;;;;;;;4.20;3.90;;;11.70;99.90;;;;;;5094150;28;20412;-79
2021/04/11 01:08:25;;;;;;;5.80;4.47;;;11.70;99.90;;;;;;5093014;28;20463;-77
2021/04/11 01:11:02;;;;;;;5.87;4.53;;;11.70;99.90;;;;;;5086999;28;20458;-78
2021/04/11 01:13:28;;;;;;;4.40;4.00;;;11.70;99.90;;;;;;5082896;28;20437;-78
2021/04/11 01:15:55;;;;;;;5.43;4.77;;;11.60;99.90;;;;;;5076468;28;20413;-78
2021/04/11 01:18:21;;;;;;;5.20;4.80;;;11.50;99.90;;;;;;5075159;28;20438;-79
2021/04/11 01:20:47;;;;;;;4.20;3.80;;;11.50;99.90;;;;;;5073079;28;20504;-79
2021/04/11 01:23:25;;;;;;;4.33;3.93;;;11.60;99.90;;;;;;5069447;28;20453;-78
2021/04/11 01:25:51;;;;;;;7.43;4.73;;;11.60;99.90;;;;;;5069172;28;20989;-78
2021/04/11 01:28:21;;;;;;;4.93;4.53;;;11.60;99.90;;;;;;5062941;28;20452;-78
2021/04/11 01:30:48;;;;;;;6.10;4.10;;;11.60;99.90;;;;;;5095007;28;21007;-79
2021/04/11 01:33:17;;;;;;;6.10;5.10;;;11.50;99.90;;;;;;5088065;28;20432;-77
2021/04/11 01:35:45;;;;;;;5.07;4.37;;;11.40;99.90;;;;;;5077193;28;20439;-80
2021/04/11 01:38:12;;;;;;;5.80;5.13;;;11.40;99.90;;;;;;5075120;28;20448;-79
2021/04/11 01:40:52;;;;;;;5.20;4.73;;;11.40;99.90;;;;;;5076941;28;20459;-77
2021/04/11 01:43:19;;;;;;;5.73;4.60;;;11.40;99.90;;;;;;5067877;28;20433;-78
2021/04/11 01:45:45;;;;;;;6.10;5.50;;;11.20;99.90;;;;;;5078546;28;20437;-79
2021/04/11 01:48:11;;;;;;;5.87;5.30;;;11.30;99.90;;;;;;5069407;28;20539;-80
2021/04/11 01:50:39;;;;;;;5.77;5.30;;;11.10;99.90;;;;;;5075253;28;20428;-78
2021/04/11 01:53:06;;;;;;;5.97;5.33;;;11.10;99.90;;;;;;5069115;28;20481;-78
2021/04/11 01:55:32;;;;;;;6.70;6.10;;;11.20;99.90;;;;;;5076772;28;20441;-79
2021/04/11 01:57:58;;;;;;;5.20;4.70;;;11.10;99.90;;;;;;5060540;28;20432;-78
2021/04/11 02:00:34;;;;;;;6.33;5.73;;;11.10;99.90;;;;;;5064266;28;20853;-77
2021/04/11 02:03:03;;;;;;;6.47;5.43;;;11.10;99.90;;;;;;5072094;28;20988;-78
2021/04/11 02:05:29;;;;;;;8.53;4.53;;;11.10;99.90;;;;;;5075591;28;20420;-77
2021/04/11 02:07:56;;;;;;;6.73;5.57;;;11.00;99.90;;;;;;5074771;28;20462;-78
2021/04/11 02:10:28;;;;;;;5.73;5.10;;;11.00;99.90;;;;;;5060385;28;20440;-78
2021/04/11 02:12:55;;;;;;;5.30;4.80;;;11.00;99.90;;;;;;5072481;28;20819;-79
2021/04/11 02:15:25;;;;;;;6.40;5.00;;;11.00;99.90;;;;;;5071258;28;20417;-79
2021/04/11 02:17:53;;;;;;;5.30;4.90;;;11.00;99.90;;;;;;5073745;28;20923;-79
2021/04/11 02:20:20;;;;;;;7.10;4.67;;;11.10;99.90;;;;;;5073199;28;20431;-78
2021/04/11 02:22:47;;;;;;;5.70;5.20;;;11.20;99.90;;;;;;5080615;28;20556;-78
2021/04/11 02:25:17;;;;;;;4.40;4.00;;;11.10;99.90;;;;;;5069595;28;20432;-80
2021/04/11 02:27:42;;;;;;;5.70;4.37;;;11.10;99.90;;;;;;5063788;28;20460;-78
2021/04/11 02:30:11;;;;;;;4.10;3.70;;;10.90;99.90;;;;;;5062979;28;20416;-79
2021/04/11 02:32:37;;;;;;;5.13;4.63;;;10.90;99.90;;;;;;5075924;28;20504;-77
2021/04/11 02:35:05;;;;;;;4.90;4.43;;;10.90;99.90;;;;;;5068724;28;20448;-77
2021/04/11 02:37:33;;;;;;;5.73;4.83;;;10.90;99.90;;;;;;5054161;28;20850;-79
2021/04/11 02:40:00;;;;;;;5.00;4.50;;;10.90;99.90;;;;;;5055714;28;20496;-78
2021/04/11 02:42:29;;;;;;;8.70;7.80;;;10.90;99.90;;;;;;5068401;28;20925;-79
2021/04/11 02:45:01;;;;;;;10.97;9.73;;;10.90;99.90;;;;;;5061458;28;20421;-78
2021/04/11 02:47:26;;;;;;;14.90;12.30;;;10.90;99.90;;;;;;5052114;28;20487;-80
2021/04/11 02:49:52;;;;;;;15.77;13.97;;;10.80;99.90;;;;;;5056421;28;20401;-79
2021/04/11 02:52:32;;;;;;;16.80;13.73;;;10.70;99.90;;;;;;5063381;28;20445;-80
2021/04/11 02:54:58;;;;;;;13.87;12.43;;;10.60;99.90;;;;;;5070710;28;20433;-78
2021/04/11 02:57:26;;;;;;;15.90;13.17;;;10.60;99.90;;;;;;5054725;28;20421;-78
2021/04/11 02:59:53;;;;;;;14.13;12.70;;;10.40;99.90;;;;;;5066295;28;20435;-78
2021/04/11 03:02:18;;;;;;;15.93;13.20;;;10.30;99.90;;;;;;5073734;28;20449;-79
2021/04/11 03:04:44;;;;;;;16.37;13.07;;;10.30;99.90;;;;;;5062544;28;20443;-78
2021/04/11 03:07:36;;;;;;;17.10;13.80;;;10.30;99.90;;;;;;5071911;28;20210;-78
2021/04/11 03:10:09;;;;;;;16.80;14.23;;;10.20;99.90;;;;;;5055961;28;20774;-78
2021/04/11 03:12:37;;;;;;;17.10;13.20;;;10.00;99.90;;;;;;5052615;28;20421;-78
2021/04/11 03:15:04;;;;;;;13.97;11.93;;;9.90;99.90;;;;;;5053748;28;20407;-78
2021/04/11 03:17:30;;;;;;;15.70;12.97;;;9.80;99.90;;;;;;5065000;28;21241;-79
2021/04/11 03:20:23;;;;;;;13.20;11.90;;;9.80;99.90;;;;;;5077526;28;20433;-78
2021/04/11 03:22:57;;;;;;;13.07;10.90;;;9.60;99.90;;;;;;5084066;28;20443;-78
2021/04/11 03:25:26;;;;;;;12.03;10.27;;;9.50;99.90;;;;;;5081111;28;20940;-78
2021/04/11 03:27:59;;;;;;;12.77;11.40;;;9.40;99.90;;;;;;5087793;28;20465;-79
2021/04/11 03:30:31;;;;;;;11.57;10.07;;;9.40;99.90;;;;;;5082612;28;20455;-79
2021/04/11 03:33:05;;;;;;;10.60;9.53;;;9.40;99.90;;;;;;5079873;28;20519;-80
2021/04/11 03:35:35;;;;;;;11.80;10.30;;;9.40;99.90;;;;;;5094026;28;20905;-79
2021/04/11 03:38:03;;;;;;;10.80;9.60;;;9.20;99.90;;;;;;5084671;28;20439;-78
2021/04/11 03:40:32;;;;;;;12.27;10.03;;;9.10;99.90;;;;;;5091455;28;20455;-77
2021/04/11 03:43:07;;;;;;;17.93;13.57;;;9.00;99.90;;;;;;5086094;28;20457;-79
2021/04/11 03:45:33;;;;;;;25.03;17.73;;;9.00;99.90;;;;;;5081668;28;20466;-77
2021/04/11 03:48:07;;;;;;;32.50;21.60;;;9.00;99.90;;;;;;5086205;28;20491;-77
2021/04/11 03:50:38;;;;;;;31.87;20.67;;;9.00;99.90;;;;;;5093146;28;20450;-77
2021/04/11 03:53:16;;;;;;;26.90;17.70;;;8.90;99.90;;;;;;5074811;28;20947;-79
2021/04/11 03:55:45;;;;;;;16.67;12.60;;;8.90;99.90;;;;;;5094238;28;20423;-79
2021/04/11 03:58:17;;;;;;;9.50;7.80;;;8.90;99.90;;;;;;5092570;28;20415;-77
2021/04/11 04:00:48;;;;;;;9.30;8.30;;;8.80;99.90;;;;;;5091428;28;21124;-77
2021/04/11 04:03:18;;;;;;;7.37;6.60;;;8.80;99.90;;;;;;5087486;28;20869;-79
2021/04/11 04:05:46;;;;;;;6.50;5.87;;;8.80;99.90;;;;;;5089503;28;20428;-78
2021/04/11 04:08:12;;;;;;;6.10;5.60;;;8.80;99.90;;;;;;5088248;28;20543;-78
2021/04/11 04:10:50;;;;;;;5.57;5.07;;;8.80;99.90;;;;;;5076939;28;20530;-80
2021/04/11 04:14:01;;;;;;;5.60;4.90;;;8.70;99.90;;;;;;5085292;28;20171;-79
2021/04/11 04:16:51;;;;;;;5.80;5.17;;;8.70;99.90;;;;;;5082446;28;20424;-79
2021/04/11 04:19:36;;;;;;;3.87;3.53;;;8.50;99.90;;;;;;5091630;28;20769;-79
2021/04/11 04:22:23;;;;;;;4.33;3.87;;;8.40;99.90;;;;;;5090551;28;20996;-78
2021/04/11 04:25:20;;;;;;;4.30;3.87;;;8.30;99.90;;;;;;5075430;28;20808;-80
2021/04/11 04:27:57;;;;;;;3.53;3.20;;;8.30;99.90;;;;;;5091425;28;20458;-80
2021/04/11 04:30:48;;;;;;;4.53;4.03;;;8.20;99.90;;;;;;5067156;28;20452;-79
2021/04/11 04:33:35;;;;;;;4.67;4.10;;;8.10;99.90;;;;;;5069059;28;20451;-79
2021/04/11 04:36:21;;;;;;;4.27;3.87;;;8.00;99.90;;;;;;5086910;28;20418;-77
2021/04/11 04:39:17;;;;;;;4.57;3.53;;;8.10;99.90;;;;;;5083591;28;20417;-79
2021/04/11 04:41:50;;;;;;;4.90;4.40;;;8.10;99.90;;;;;;5054111;28;20502;-79
2021/04/11 04:44:37;;;;;;;4.67;4.10;;;8.10;99.90;;;;;;5073590;28;20861;-79
2021/04/11 04:47:12;;;;;;;12.50;7.70;;;8.10;99.90;;;;;;5069987;28;20543;-79
2021/04/11 04:49:52;;;;;;;10.67;8.50;;;8.00;99.90;;;;;;5062112;28;20499;-80
2021/04/11 04:52:23;;;;;;;15.50;10.27;;;8.00;99.90;;;;;;5072064;28;20446;-78
2021/04/11 04:55:09;;;;;;;13.43;9.47;;;7.80;99.90;;;;;;5082976;28;20791;-78
2021/04/11 04:57:48;;;;;;;10.97;8.90;;;7.70;99.90;;;;;;5073160;28;20495;-79
2021/04/11 05:00:22;;;;;;;10.07;7.60;;;7.70;99.90;;;;;;5076749;28;20445;-80
2021/04/11 05:03:05;;;;;;;7.87;7.07;;;7.70;99.90;;;;;;5092798;28;20435;-79
2021/04/11 05:05:32;;;;;;;13.47;8.87;;;7.40;99.90;;;;;;5085288;28;20425;-77
2021/04/11 05:08:06;;;;;;;8.50;7.20;;;7.30;99.90;;;;;;5077712;28;20440;-80
2021/04/11 05:10:59;;;;;;;6.73;6.00;;;7.20;99.90;;;;;;5073073;28;20498;-79
2021/04/11 05:13:26;;;;;;;7.70;5.60;;;7.20;99.90;;;;;;5080181;28;20416;-78
2021/04/11 05:16:03;;;;;;;7.00;5.93;;;7.10;99.90;;;;;;5074754;28;20532;-80
2021/04/11 05:18:35;;;;;;;6.20;5.60;;;7.20;99.90;;;;;;5079862;28;20439;-79
2021/04/11 05:21:05;;;;;;;9.13;6.57;;;7.10;99.90;;;;;;5089864;28;20481;-78
2021/04/11 05:23:48;;;;;;;6.80;6.10;;;7.10;99.90;;;;;;5076584;28;20404;-79
2021/04/11 05:26:21;;;;;;;6.00;5.40;;;7.00;99.90;;;;;;5075806;28;20429;-79
2021/04/11 05:28:56;;;;;;;5.53;5.00;;;7.10;99.90;;;;;;5087848;28;20431;-79
2021/04/11 05:31:33;;;;;;;8.97;7.03;;;6.90;99.90;;;;;;5084155;28;20424;-78
2021/04/11 05:34:00;;;;;;;8.67;7.20;;;6.80;99.90;;;;;;5082600;28;20472;-79
2021/04/11 05:36:54;;;;;;;8.87;7.97;;;6.90;99.90;;;;;;5088295;28;20514;-79
2021/04/11 05:39:38;;;;;;;9.17;6.20;;;6.80;99.90;;;;;;5072292;28;20857;-77
2021/04/11 05:42:11;;;;;;;8.40;6.40;;;6.70;99.90;;;;;;5069702;28;20451;-78
2021/04/11 05:44:47;;;;;;;10.27;7.40;;;6.70;99.90;;;;;;5097675;28;20411;-79
2021/04/11 05:47:26;;;;;;;8.60;6.97;;;6.60;99.90;;;;;;5087867;28;21048;-79
2021/04/11 05:50:16;;;;;;;10.90;8.23;;;6.60;99.90;;;;;;5083158;28;20470;-80
2021/04/11 05:52:54;;;;;;;9.30;8.33;;;6.60;99.90;;;;;;5083103;28;20442;-78
2021/04/11 05:55:23;;;;;;;10.23;9.07;;;6.50;99.90;;;;;;5092477;28;20436;-77
2021/04/11 05:57:54;;;;;;;8.20;7.17;;;6.40;99.90;;;;;;5091214;28;20440;-79
2021/04/11 06:00:30;;;;;;;10.00;7.40;;;6.20;99.90;;;;;;5093723;28;20886;-79
2021/04/11 06:02:59;;;;;;;11.00;7.40;;;6.20;99.90;;;;;;5078102;28;20967;-79
2021/04/11 06:05:43;;;;;;;11.67;8.53;;;6.20;99.90;;;;;;5082258;28;20439;-81
2021/04/11 06:08:12;;;;;;;9.43;8.20;;;6.10;99.90;;;;;;5082146;28;20463;-79
2021/04/11 06:10:59;;;;;;;13.07;9.40;;;6.10;99.90;;;;;;5075796;28;20530;-79
2021/04/11 06:13:40;;;;;;;12.83;8.77;;;6.10;99.90;;;;;;5082738;28;20778;-79
2021/04/11 06:16:11;;;;;;;14.40;10.10;;;6.00;99.90;;;;;;5080575;28;20427;-80
2021/04/11 06:18:46;;;;;;;22.00;12.97;;;6.00;99.90;;;;;;5082494;28;20436;-79
2021/04/11 06:21:21;;;;;;;15.63;10.80;;;6.00;99.90;;;;;;5075707;28;20455;-79
2021/04/11 06:23:57;;;;;;;13.90;10.00;;;6.00;99.90;;;;;;5075868;28;20434;-79
2021/04/11 06:26:28;;;;;;;19.60;11.57;;;5.90;99.90;;;;;;5094343;28;20855;-79
2021/04/11 06:29:03;;;;;;;12.83;10.23;;;5.90;99.90;;;;;;5091245;28;20431;-79
2021/04/11 06:31:58;;;;;;;14.03;10.10;;;5.80;99.90;;;;;;5085633;28;20453;-79
2021/04/11 06:34:37;;;;;;;13.00;9.60;;;5.90;99.90;;;;;;5078800;28;20913;-80
2021/04/11 06:37:07;;;;;;;13.40;10.73;;;5.80;99.90;;;;;;5087408;28;20441;-79
2021/04/11 06:39:40;;;;;;;14.23;11.43;;;5.80;99.90;;;;;;5076429;28;20790;-77
2021/04/11 06:42:54;;;;;;;13.30;9.23;;;5.90;99.90;;;;;;5074416;28;20437;-77
2021/04/11 06:45:34;;;;;;;11.30;7.90;;;5.80;99.90;;;;;;5015361;28;20795;-79
2021/04/11 06:48:29;;;;;;;19.17;11.00;;;5.80;99.90;;;;;;5076217;28;20455;-79
2021/04/11 06:51:07;;;;;;;14.73;10.10;;;5.80;99.90;;;;;;5072117;28;20455;-78
2021/04/11 06:54:09;;;;;;;9.40;7.83;;;5.80;99.90;;;;;;5072555;28;20884;-77
2021/04/11 06:56:46;;;;;;;11.23;8.10;;;5.80;99.90;;;;;;5084192;28;20458;-79
2021/04/11 06:59:50;;;;;;;13.33;7.93;;;5.80;99.90;;;;;;5077695;28;20427;-79
2021/04/11 07:02:37;;;;;;;10.90;6.30;;;5.80;99.90;;;;;;5066860;28;20443;-79
2021/04/11 07:05:33;;;;;;;8.50;5.80;;;5.80;99.90;;;;;;5094208;28;20403;-80
2021/04/11 07:08:20;;;;;;;7.23;6.30;;;5.70;99.90;;;;;;5078870;28;20478;-81
2021/04/11 07:10:53;;;;;;;7.00;6.30;;;5.70;99.90;;;;;;5081949;28;20539;-77
2021/04/11 07:13:42;;;;;;;7.10;5.53;;;5.60;99.90;;;;;;5096297;28;20439;-80
2021/04/11 07:16:32;;;;;;;6.60;5.83;;;5.60;99.90;;;;;;5077550;28;20485;-79
2021/04/11 07:19:13;;;;;;;7.37;5.20;;;5.60;99.90;;;;;;5078177;28;20438;-79
2021/04/11 07:21:57;;;;;;;5.97;4.77;;;5.60;99.90;;;;;;5089129;28;20857;-81
2021/04/11 07:24:53;;;;;;;5.17;4.67;;;5.70;99.90;;;;;;5095805;28;20761;-79
2021/04/11 07:27:46;;;;;;;5.03;4.53;;;5.70;99.90;;;;;;5088739;28;21078;-79
2021/04/11 07:30:49;;;;;;;7.00;4.83;;;5.80;99.90;;;;;;5069402;28;20438;-80
2021/04/11 07:33:27;;;;;;;6.67;5.50;;;5.90;99.90;;;;;;5094902;28;20797;-79
2021/04/11 07:36:22;;;;;;;6.40;4.93;;;5.80;99.90;;;;;;5094460;28;20408;-79
2021/04/11 07:39:09;;;;;;;6.80;6.10;;;5.80;99.90;;;;;;5079072;28;20477;-77
2021/04/11 07:41:53;;;;;;;7.13;5.63;;;5.90;99.90;;;;;;5073323;28;20444;-80
2021/04/11 07:44:24;;;;;;;6.63;5.93;;;5.90;99.90;;;;;;5075837;28;20488;-78
2021/04/11 07:46:59;;;;;;;5.30;4.80;;;6.00;99.90;;;;;;5075175;28;20467;-80
2021/04/11 07:49:46;;;;;;;6.17;4.53;;;5.90;99.90;;;;;;5075767;28;20948;-79
2021/04/11 07:52:40;;;;;;;5.67;4.70;;;5.90;99.90;;;;;;5067651;28;20457;-79
2021/04/11 07:55:15;;;;;;;5.03;4.53;;;5.90;99.90;;;;;;5074600;28;20424;-80
2021/04/11 07:58:06;;;;;;;5.30;4.70;;;5.80;99.90;;;;;;5083058;28;20436;-79
2021/04/11 08:00:51;;;;;;;5.80;5.10;;;5.80;99.90;;;;;;5081570;28;20479;-79
2021/04/11 08:03:54;;;;;;;8.20;5.17;;;6.00;99.90;;;;;;5085174;28;20451;-77
2021/04/11 08:07:01;;;;;;;5.43;4.90;;;6.10;99.90;;;;;;5088124;28;20438;-79
2021/04/11 08:10:05;;;;;;;5.60;4.87;;;6.00;99.90;;;;;;5088507;28;20483;-79
2021/04/11 08:13:09;;;;;;;7.57;5.60;;;6.10;99.90;;;;;;5063259;28;20438;-79
2021/04/11 08:15:41;;;;;;;7.30;5.73;;;6.00;99.90;;;;;;5059097;28;20428;-79
2021/04/11 08:18:32;;;;;;;7.60;5.67;;;5.90;99.90;;;;;;5074784;28;20431;-77
2021/04/11 08:21:18;;;;;;;6.80;5.50;;;5.90;99.90;;;;;;5049619;28;20428;-79
2021/04/11 08:24:29;;;;;;;6.57;5.30;;;5.90;99.90;;;;;;5067122;28;20497;-79
2021/04/11 08:27:34;;;;;;;6.77;4.90;;;5.90;99.90;;;;;;5071417;28;20861;-79
2021/04/11 08:30:12;;;;;;;6.67;4.70;;;5.80;99.90;;;;;;5090962;28;20424;-78
2021/04/11 08:32:44;;;;;;;5.20;4.70;;;5.70;99.90;;;;;;5077681;28;20956;-77
2021/04/11 08:35:36;;;;;;;4.57;4.17;;;5.70;99.90;;;;;;5087677;28;20431;-79
2021/04/11 08:38:20;;;;;;;4.87;4.00;;;5.70;99.90;;;;;;5083511;28;20792;-79
2021/04/11 08:41:13;;;;;;;4.77;3.53;;;5.80;99.90;;;;;;5096020;28;20515;-79
2021/04/11 08:43:41;;;;;;;4.40;4.00;;;5.70;99.90;;;;;;5089028;28;20436;-79
2021/04/11 08:46:22;;;;;;;4.73;4.20;;;5.70;99.90;;;;;;5074736;28;20440;-79
2021/04/11 08:49:06;;;;;;;4.37;3.97;;;5.80;99.90;;;;;;5076318;28;20484;-80
2021/04/11 08:51:44;;;;;;;7.20;3.63;;;5.80;99.90;;;;;;5071896;28;20539;-78
2021/04/11 08:54:46;;;;;;;4.40;3.73;;;5.80;99.90;;;;;;5093162;28;20412;-79
2021/04/11 08:57:17;;;;;;;3.63;2.93;;;5.80;99.90;;;;;;5073230;28;20936;-79
2021/04/11 09:00:04;;;;;;;3.30;2.93;;;5.80;99.90;;;;;;5076162;28;20925;-79
2021/04/11 09:03:08;;;;;;;4.63;3.33;;;5.70;99.90;;;;;;5078400;28;20427;-79
2021/04/11 09:06:03;;;;;;;4.20;3.83;;;5.80;99.90;;;;;;5075441;28;20487;-79
2021/04/11 09:08:41;;;;;;;4.73;3.43;;;5.90;99.90;;;;;;5074255;28;21051;-79
2021/04/11 09:11:48;;;;;;;5.40;3.33;;;6.00;99.90;;;;;;5074153;28;20443;-79
2021/04/11 09:14:43;;;;;;;4.27;3.87;;;6.10;99.90;;;;;;4999037;28;20407;-79
2021/04/11 09:17:27;;;;;;;5.93;5.43;;;6.10;99.90;;;;;;5012243;28;20709;-79
2021/04/11 09:20:10;;;;;;;5.47;4.90;;;6.10;99.90;;;;;;5043336;28;20801;-78
2021/04/11 09:22:39;;;;;;;4.30;4.00;;;6.10;99.90;;;;;;5071986;28;20950;-79
2021/04/11 09:25:15;;;;;;;6.33;5.73;;;6.10;99.90;;;;;;5056809;28;20413;-80
2021/04/11 09:28:19;;;;;;;6.77;5.23;;;6.20;99.90;;;;;;5057557;28;20464;-79
2021/04/11 09:31:22;;;;;;;7.00;6.40;;;6.10;99.90;;;;;;5063059;28;20813;-79
2021/04/11 09:34:09;;;;;;;6.43;5.07;;;6.20;99.90;;;;;;5075606;28;20401;-79
2021/04/11 09:36:57;;;;;;;5.63;5.10;;;6.30;99.90;;;;;;5059262;28;20488;-80
2021/04/11 09:39:44;;;;;;;5.10;4.70;;;6.40;99.90;;;;;;5060448;28;20429;-79
2021/04/11 09:42:28;;;;;;;4.97;4.47;;;6.40;99.90;;;;;;5092427;28;20439;-78
2021/04/11 09:45:24;;;;;;;4.87;4.37;;;6.40;99.90;;;;;;5076389;28;20424;-79
2021/04/11 09:48:40;;;;;;;3.90;3.60;;;6.40;99.90;;;;;;5076442;28;20519;-79
2021/04/11 09:51:17;;;;;;;3.13;2.83;;;6.40;99.90;;;;;;5040960;28;20540;-80
2021/04/11 09:54:02;;;;;;;3.90;3.60;;;6.30;99.90;;;;;;5060529;28;20436;-78
2021/04/11 09:56:45;;;;;;;4.00;3.70;;;6.20;99.90;;;;;;5073092;28;21128;-80
2021/04/11 09:59:40;;;;;;;4.90;4.50;;;6.30;99.90;;;;;;5058159;28;20431;-79
2021/04/11 10:02:52;;;;;;;5.20;4.40;;;6.30;99.90;;;;;;5066650;28;20452;-79
2021/04/11 10:05:40;;;;;;;2.50;2.30;;;6.40;99.90;;;;;;5070704;28;20432;-79
2021/04/11 10:08:25;;;;;;;2.90;2.60;;;6.20;99.90;;;;;;5074243;28;20466;-79
2021/04/11 10:11:16;;;;;;;2.20;1.97;;;6.30;99.90;;;;;;5061072;28;20452;-80
2021/04/11 10:14:35;;;;;;;2.90;2.43;;;6.40;99.90;;;;;;5077275;28;20431;-79
2021/04/11 10:17:19;;;;;;;3.10;2.80;;;6.30;99.90;;;;;;5071806;28;20505;-79
2021/04/11 10:20:16;;;;;;;2.60;2.40;;;6.70;99.90;;;;;;5071010;28;20866;-78
2021/04/11 10:22:48;;;;;;;2.50;2.30;;;6.80;99.90;;;;;;5075752;28;20432;-80
2021/04/11 10:25:22;;;;;;;3.73;3.00;;;6.70;99.90;;;;;;5074633;28;20432;-80
2021/04/11 10:28:06;;;;;;;2.70;2.50;;;6.70;99.90;;;;;;5074702;28;20538;-80
2021/04/11 10:30:39;;;;;;;4.03;3.20;;;6.70;99.90;;;;;;5083156;28;20455;-79
2021/04/11 10:33:13;;;;;;;2.90;2.70;;;6.60;99.90;;;;;;5092850;28;20423;-77
2021/04/11 10:36:02;;;;;;;2.40;2.23;;;6.50;99.90;;;;;;5081091;28;20797;-79
2021/04/11 10:39:05;;;;;;;2.60;2.40;;;6.40;99.90;;;;;;5086528;28;20526;-79
2021/04/11 10:41:43;;;;;;;3.90;3.10;;;6.30;99.90;;;;;;5069162;28;20459;-76
2021/04/11 10:44:30;;;;;;;3.80;3.43;;;6.40;99.90;;;;;;5093084;28;20435;-80
2021/04/11 10:47:17;;;;;;;3.03;2.73;;;6.30;99.90;;;;;;5092851;28;20957;-79
2021/04/11 10:49:56;;;;;;;2.97;2.67;;;6.40;99.90;;;;;;5071404;28;20459;-79
2021/04/11 10:52:37;;;;;;;1.97;1.77;;;6.40;99.90;;;;;;5092194;28;20434;-80
2021/04/11 10:55:05;;;;;;;2.60;2.30;;;6.30;99.90;;;;;;5075468;28;20442;-79
2021/04/11 10:58:05;;;;;;;2.90;2.27;;;6.20;99.90;;;;;;5093609;28;20918;-80
2021/04/11 11:00:48;;;;;;;2.30;2.10;;;6.20;99.90;;;;;;5090260;28;20443;-80
2021/04/11 11:03:40;;;;;;;2.83;2.63;;;6.20;99.90;;;;;;5095115;28;20954;-80
2021/04/11 11:06:27;;;;;;;2.20;2.00;;;6.20;99.90;;;;;;5075423;28;20439;-79
2021/04/11 11:09:14;;;;;;;3.10;2.80;;;6.30;99.90;;;;;;5075037;28;21030;-80
2021/04/11 11:12:06;;;;;;;3.13;2.80;;;6.30;99.90;;;;;;5074670;28;20450;-79
2021/04/11 11:14:41;;;;;;;2.37;2.17;;;6.40;99.90;;;;;;5036784;28;20417;-78
2021/04/11 11:17:31;;;;;;;4.00;3.60;;;6.30;99.90;;;;;;5107096;28;20834;-78
2021/04/11 11:20:31;;;;;;;2.27;1.73;;;6.40;99.90;;;;;;5093449;28;20423;-79
2021/04/11 11:23:14;;;;;;;2.00;1.73;;;6.30;99.90;;;;;;5069260;28;20424;-79
2021/04/11 11:25:46;;;;;;;1.93;1.83;;;6.30;99.90;;;;;;5091475;28;20476;-80
2021/04/11 11:28:42;;;;;;;1.60;1.50;;;6.30;99.90;;;;;;5077051;28;20455;-79
2021/04/11 11:31:37;;;;;;;1.73;1.57;;;6.20;99.90;;;;;;5070513;28;20456;-79
2021/04/11 11:34:16;;;;;;;1.67;1.57;;;6.20;99.90;;;;;;5069502;28;20425;-79
2021/04/11 11:36:48;;;;;;;2.20;1.90;;;6.30;99.90;;;;;;5078088;28;20511;-78
2021/04/11 11:39:43;;;;;;;3.60;2.07;;;6.30;99.90;;;;;;5093045;28;20472;-77
2021/04/11 11:42:21;;;;;;;2.87;2.60;;;6.40;99.90;;;;;;5082604;28;20516;-78
2021/04/11 11:44:55;;;;;;;5.77;2.40;;;6.80;99.90;;;;;;5061357;28;20456;-79
2021/04/11 11:47:24;;;;;;;5.20;2.07;;;7.20;99.90;;;;;;5063759;28;20487;-78
2021/04/11 11:49:59;;;;;;;3.70;1.57;;;7.30;99.90;;;;;;5089905;28;20403;-78
2021/04/11 11:52:33;;;;;;;1.43;1.30;;;7.20;99.90;;;;;;5078516;28;20999;-78
2021/04/11 11:55:03;;;;;;;2.50;1.60;;;7.10;99.90;;;;;;5084538;28;20429;-78
2021/04/11 11:58:30;;;;;;;1.57;1.47;;;7.00;99.90;;;;;;5061675;28;21099;-80
2021/04/11 12:01:06;;;;;;;2.10;2.00;;;6.90;99.90;;;;;;5010429;28;20513;-79
2021/04/11 12:03:36;;;;;;;1.63;1.50;;;6.80;99.90;;;;;;4993201;28;20514;-78
2021/04/11 12:06:22;;;;;;;3.80;2.07;;;6.60;99.90;;;;;;5043380;28;20449;-78
2021/04/11 12:09:00;;;;;;;2.23;2.03;;;6.70;99.90;;;;;;5074088;28;20806;-79
2021/04/11 12:11:58;;;;;;;2.33;2.20;;;6.80;99.90;;;;;;5052591;28;20928;-78
2021/04/11 12:14:29;;;;;;;2.07;1.97;;;6.70;99.90;;;;;;5053729;28;20422;-79
2021/04/11 12:17:03;;;;;;;2.03;1.83;;;6.80;99.90;;;;;;5093663;28;20542;-78
2021/04/11 12:20:07;;;;;;;2.50;2.30;;;6.70;99.90;;;;;;5056600;28;20400;-80
2021/04/11 12:22:42;;;;;;;3.60;2.70;;;6.80;99.90;;;;;;5060724;28;20519;-79
2021/04/11 12:25:22;;;;;;;3.30;3.00;;;6.80;99.90;;;;;;5092851;28;20810;-80
2021/04/11 12:27:48;;;;;;;5.57;3.80;;;6.80;99.90;;;;;;5094968;28;20451;-80
2021/04/11 12:30:30;;;;;;;5.13;3.20;;;6.90;99.90;;;;;;5059439;28;20461;-79
2021/04/11 12:33:19;;;;;;;3.23;2.93;;;6.90;99.90;;;;;;5082578;28;20977;-81
2021/04/11 12:35:54;;;;;;;3.37;3.07;;;7.00;99.90;;;;;;5074811;28;20473;-78
2021/04/11 12:38:42;;;;;;;3.37;2.80;;;7.00;99.90;;;;;;5092483;28;20438;-78
2021/04/11 12:41:43;;;;;;;3.10;2.67;;;7.10;99.90;;;;;;5078683;28;20452;-79
2021/04/11 12:44:19;;;;;;;2.83;2.63;;;7.20;99.90;;;;;;5095367;28;20446;-79
2021/04/11 12:46:56;;;;;;;2.93;2.63;;;7.10;99.90;;;;;;5090617;28;20450;-79
2021/04/11 12:49:29;;;;;;;2.60;2.40;;;7.30;99.90;;;;;;5080612;28;20426;-80
2021/04/11 12:52:11;;;;;;;2.90;2.43;;;7.30;99.90;;;;;;5070761;28;20437;-79
2021/04/11 12:54:45;;;;;;;2.50;2.30;;;7.30;99.90;;;;;;5055580;28;20397;-79
2021/04/11 12:57:24;;;;;;;4.03;3.63;;;7.40;99.90;;;;;;5055363;28;20774;-80
2021/04/11 13:00:13;;;;;;;3.53;3.03;;;7.50;99.90;;;;;;5055223;28;20413;-79
2021/04/11 13:02:56;;;;;;;2.70;2.50;;;7.60;99.90;;;;;;5079785;28;20427;-80
2021/04/11 13:05:39;;;;;;;3.73;3.43;;;7.70;99.90;;;;;;5097650;28;20783;-79
2021/04/11 13:08:15;;;;;;;5.23;2.40;;;7.70;99.90;;;;;;5098158;28;20458;-79
2021/04/11 13:10:56;;;;;;;2.40;2.20;;;7.90;99.90;;;;;;5096092;28;20455;-80
2021/04/11 13:13:37;;;;;;;2.70;2.50;;;7.80;99.90;;;;;;5096042;28;20450;-79
2021/04/11 13:16:17;;;;;;;5.70;3.23;;;7.80;99.90;;;;;;5094403;28;20423;-80
2021/04/11 13:19:05;;;;;;;3.13;2.93;;;7.90;99.90;;;;;;5078364;28;20432;-79
2021/04/11 13:21:43;;;;;;;3.40;3.10;;;8.00;99.90;;;;;;5092662;28;20459;-78
2021/04/11 13:24:17;;;;;;;3.13;2.60;;;8.10;99.90;;;;;;5091393;28;20518;-78
2021/04/11 13:26:52;;;;;;;3.40;2.97;;;8.10;99.90;;;;;;5081598;28;20439;-77
2021/04/11 13:29:22;;;;;;;5.87;2.23;;;8.20;99.90;;;;;;5071936;28;20401;-78
2021/04/11 13:31:56;;;;;;;3.73;2.80;;;8.00;99.90;;;;;;5094695;28;20427;-77
2021/04/11 13:34:54;;;;;;;3.43;3.13;;;8.00;99.90;;;;;;5094300;28;20780;-78
2021/04/11 13:37:20;;;;;;;3.73;3.07;;;8.00;99.90;;;;;;5069091;28;20407;-78
2021/04/11 13:39:50;;;;;;;5.90;4.27;;;8.00;99.90;;;;;;5064274;28;20427;-78
2021/04/11 13:42:40;;;;;;;4.50;2.80;;;8.00;99.90;;;;;;5083614;28;20443;-79
2021/04/11 13:45:35;;;;;;;4.03;3.53;;;7.80;99.90;;;;;;5076549;28;20450;-79
2021/04/11 13:48:07;;;;;;;4.33;3.93;;;7.70;99.90;;;;;;5071035;28;20444;-79
2021/04/11 13:50:52;;;;;;;6.13;5.33;;;7.60;99.90;;;;;;5081967;28;20489;-80
2021/04/11 13:53:26;;;;;;;6.20;5.60;;;7.50;99.90;;;;;;5085894;28;20484;-80